sensor_id;sensor_type;location;lat;lon;timestamp;P1;durP1;ratioP1;P2;durP2;ratioP2
51981;SDS011;37998;53.416;6.730;2022-08-25T00:01:55;4.95;;;3.85;;
51981;SDS011;37998;53.416;6.730;2022-08-25T00:04:25;5.25;;;3.97;;
51981;SDS011;37998;53.416;6.730;2022-08-25T00:06:53;6.50;;;3.45;;
51981;SDS011;37998;53.416;6.730;2022-08-25T00:09:20;6.18;;;3.88;;
51981;SDS011;37998;53.416;6.730;2022-08-25T00:11:49;6.18;;;4.07;;
51981;SDS011;37998;53.416;6.730;2022-08-25T00:14:17;6.90;;;3.72;;
51981;SDS011;37998;53.416;6.730;2022-08-25T00:16:45;8.32;;;3.88;;
51981;SDS011;37998;53.416;6.730;2022-08-25T00:19:14;5.72;;;4.13;;
51981;SDS011;37998;53.416;6.730;2022-08-25T00:21:42;6.43;;;3.92;;
51981;SDS011;37998;53.416;6.730;2022-08-25T00:24:09;8.90;;;4.10;;
51981;SDS011;37998;53.416;6.730;2022-08-25T00:26:40;5.50;;;4.10;;
51981;SDS011;37998;53.416;6.730;2022-08-25T00:29:09;10.15;;;3.92;;
51981;SDS011;37998;53.416;6.730;2022-08-25T00:31:35;6.95;;;3.90;;
51981;SDS011;37998;53.416;6.730;2022-08-25T00:34:01;5.22;;;3.60;;
51981;SDS011;37998;53.416;6.730;2022-08-25T00:36:27;7.47;;;3.88;;
51981;SDS011;37998;53.416;6.730;2022-08-25T00:38:53;6.72;;;3.90;;
51981;SDS011;37998;53.416;6.730;2022-08-25T00:41:21;7.75;;;4.30;;
51981;SDS011;37998;53.416;6.730;2022-08-25T00:43:55;8.18;;;3.58;;
51981;SDS011;37998;53.416;6.730;2022-08-25T00:46:24;5.78;;;3.85;;
51981;SDS011;37998;53.416;6.730;2022-08-25T00:48:54;7.38;;;4.40;;
51981;SDS011;37998;53.416;6.730;2022-08-25T00:51:28;8.43;;;3.95;;
51981;SDS011;37998;53.416;6.730;2022-08-25T00:54:03;8.13;;;4.32;;
51981;SDS011;37998;53.416;6.730;2022-08-25T00:56:31;5.60;;;3.75;;
51981;SDS011;37998;53.416;6.730;2022-08-25T00:58:59;6.80;;;4.13;;
51981;SDS011;37998;53.416;6.730;2022-08-25T01:01:26;5.80;;;3.80;;
51981;SDS011;37998;53.416;6.730;2022-08-25T01:03:52;5.60;;;4.00;;
51981;SDS011;37998;53.416;6.730;2022-08-25T01:06:19;9.35;;;3.92;;
51981;SDS011;37998;53.416;6.730;2022-08-25T01:08:45;6.20;;;3.63;;
51981;SDS011;37998;53.416;6.730;2022-08-25T01:11:11;9.05;;;4.13;;
51981;SDS011;37998;53.416;6.730;2022-08-25T01:13:41;7.32;;;4.78;;
51981;SDS011;37998;53.416;6.730;2022-08-25T01:16:10;6.97;;;4.15;;
51981;SDS011;37998;53.416;6.730;2022-08-25T01:21:10;8.30;;;3.78;;
51981;SDS011;37998;53.416;6.730;2022-08-25T01:23:35;5.95;;;3.90;;
51981;SDS011;37998;53.416;6.730;2022-08-25T01:26:06;6.47;;;3.83;;
51981;SDS011;37998;53.416;6.730;2022-08-25T01:28:36;6.40;;;4.45;;
51981;SDS011;37998;53.416;6.730;2022-08-25T01:31:02;4.57;;;3.55;;
51981;SDS011;37998;53.416;6.730;2022-08-25T01:33:29;9.15;;;4.00;;
51981;SDS011;37998;53.416;6.730;2022-08-25T01:35:55;9.85;;;3.97;;
51981;SDS011;37998;53.416;6.730;2022-08-25T01:38:20;5.35;;;4.25;;
51981;SDS011;37998;53.416;6.730;2022-08-25T01:40:47;6.75;;;3.92;;
51981;SDS011;37998;53.416;6.730;2022-08-25T01:43:20;5.68;;;4.00;;
51981;SDS011;37998;53.416;6.730;2022-08-25T01:46:01;8.38;;;4.68;;
51981;SDS011;37998;53.416;6.730;2022-08-25T01:48:26;5.18;;;3.70;;
51981;SDS011;37998;53.416;6.730;2022-08-25T01:50:52;6.38;;;4.43;;
51981;SDS011;37998;53.416;6.730;2022-08-25T01:53:22;7.15;;;4.05;;
51981;SDS011;37998;53.416;6.730;2022-08-25T01:55:51;6.25;;;4.03;;
51981;SDS011;37998;53.416;6.730;2022-08-25T01:58:20;8.65;;;4.47;;
51981;SDS011;37998;53.416;6.730;2022-08-25T02:00:48;7.60;;;4.90;;
51981;SDS011;37998;53.416;6.730;2022-08-25T02:03:15;7.55;;;4.32;;
51981;SDS011;37998;53.416;6.730;2022-08-25T02:05:42;6.75;;;4.50;;
51981;SDS011;37998;53.416;6.730;2022-08-25T02:08:09;9.68;;;4.47;;
51981;SDS011;37998;53.416;6.730;2022-08-25T02:10:35;6.03;;;4.10;;
51981;SDS011;37998;53.416;6.730;2022-08-25T02:13:02;5.32;;;4.05;;
51981;SDS011;37998;53.416;6.730;2022-08-25T02:15:30;5.22;;;4.20;;
51981;SDS011;37998;53.416;6.730;2022-08-25T02:17:56;10.15;;;4.22;;
51981;SDS011;37998;53.416;6.730;2022-08-25T02:20:22;8.45;;;4.18;;
51981;SDS011;37998;53.416;6.730;2022-08-25T02:22:52;6.90;;;4.22;;
51981;SDS011;37998;53.416;6.730;2022-08-25T02:25:18;8.10;;;4.28;;
51981;SDS011;37998;53.416;6.730;2022-08-25T02:27:44;5.05;;;4.28;;
51981;SDS011;37998;53.416;6.730;2022-08-25T02:30:14;7.03;;;4.88;;
51981;SDS011;37998;53.416;6.730;2022-08-25T02:32:40;7.32;;;4.20;;
51981;SDS011;37998;53.416;6.730;2022-08-25T02:35:06;6.80;;;4.43;;
51981;SDS011;37998;53.416;6.730;2022-08-25T02:37:33;9.77;;;4.65;;
51981;SDS011;37998;53.416;6.730;2022-08-25T02:39:59;10.57;;;4.68;;
51981;SDS011;37998;53.416;6.730;2022-08-25T02:42:26;7.35;;;4.32;;
51981;SDS011;37998;53.416;6.730;2022-08-25T02:44:52;7.95;;;4.70;;
51981;SDS011;37998;53.416;6.730;2022-08-25T02:47:18;6.60;;;4.13;;
51981;SDS011;37998;53.416;6.730;2022-08-25T02:49:44;6.68;;;4.90;;
51981;SDS011;37998;53.416;6.730;2022-08-25T02:52:10;6.38;;;4.43;;
51981;SDS011;37998;53.416;6.730;2022-08-25T02:54:35;6.72;;;4.60;;
51981;SDS011;37998;53.416;6.730;2022-08-25T02:57:02;8.13;;;4.72;;
51981;SDS011;37998;53.416;6.730;2022-08-25T02:59:28;7.97;;;4.57;;
51981;SDS011;37998;53.416;6.730;2022-08-25T03:01:54;8.70;;;4.97;;
51981;SDS011;37998;53.416;6.730;2022-08-25T03:04:19;8.35;;;4.30;;
51981;SDS011;37998;53.416;6.730;2022-08-25T03:06:45;6.38;;;4.40;;
51981;SDS011;37998;53.416;6.730;2022-08-25T03:09:11;8.43;;;4.47;;
51981;SDS011;37998;53.416;6.730;2022-08-25T03:11:37;6.18;;;4.78;;
51981;SDS011;37998;53.416;6.730;2022-08-25T03:14:04;7.05;;;4.85;;
51981;SDS011;37998;53.416;6.730;2022-08-25T03:16:30;6.95;;;4.90;;
51981;SDS011;37998;53.416;6.730;2022-08-25T03:18:56;8.77;;;4.78;;
51981;SDS011;37998;53.416;6.730;2022-08-25T03:21:23;7.10;;;4.97;;
51981;SDS011;37998;53.416;6.730;2022-08-25T03:23:49;5.95;;;5.38;;
51981;SDS011;37998;53.416;6.730;2022-08-25T03:26:15;9.13;;;5.05;;
51981;SDS011;37998;53.416;6.730;2022-08-25T03:28:59;8.45;;;5.57;;
51981;SDS011;37998;53.416;6.730;2022-08-25T03:31:29;10.50;;;5.50;;
51981;SDS011;37998;53.416;6.730;2022-08-25T03:33:56;11.07;;;5.43;;
51981;SDS011;37998;53.416;6.730;2022-08-25T03:36:23;8.75;;;5.03;;
51981;SDS011;37998;53.416;6.730;2022-08-25T03:38:50;8.35;;;5.55;;
51981;SDS011;37998;53.416;6.730;2022-08-25T03:41:17;5.55;;;4.88;;
51981;SDS011;37998;53.416;6.730;2022-08-25T03:43:45;8.30;;;5.85;;
51981;SDS011;37998;53.416;6.730;2022-08-25T03:46:18;11.48;;;5.50;;
51981;SDS011;37998;53.416;6.730;2022-08-25T03:48:46;10.88;;;5.30;;
51981;SDS011;37998;53.416;6.730;2022-08-25T03:51:17;9.95;;;4.85;;
51981;SDS011;37998;53.416;6.730;2022-08-25T03:53:54;7.78;;;5.15;;
51981;SDS011;37998;53.416;6.730;2022-08-25T03:56:20;9.15;;;5.03;;
51981;SDS011;37998;53.416;6.730;2022-08-25T03:58:46;8.50;;;5.43;;
51981;SDS011;37998;53.416;6.730;2022-08-25T04:01:12;8.63;;;5.68;;
51981;SDS011;37998;53.416;6.730;2022-08-25T04:03:38;7.55;;;5.60;;
51981;SDS011;37998;53.416;6.730;2022-08-25T04:06:05;9.75;;;4.78;;
51981;SDS011;37998;53.416;6.730;2022-08-25T04:08:32;10.52;;;5.68;;
51981;SDS011;37998;53.416;6.730;2022-08-25T04:10:58;11.40;;;5.80;;
51981;SDS011;37998;53.416;6.730;2022-08-25T04:13:24;9.32;;;5.95;;
51981;SDS011;37998;53.416;6.730;2022-08-25T04:15:49;9.60;;;5.85;;
51981;SDS011;37998;53.416;6.730;2022-08-25T04:18:15;11.68;;;5.22;;
51981;SDS011;37998;53.416;6.730;2022-08-25T04:20:41;9.93;;;5.93;;
51981;SDS011;37998;53.416;6.730;2022-08-25T04:23:07;8.27;;;5.55;;
51981;SDS011;37998;53.416;6.730;2022-08-25T04:25:34;10.25;;;5.85;;
51981;SDS011;37998;53.416;6.730;2022-08-25T04:28:06;10.27;;;5.53;;
51981;SDS011;37998;53.416;6.730;2022-08-25T04:30:33;7.38;;;6.15;;
51981;SDS011;37998;53.416;6.730;2022-08-25T04:32:59;12.57;;;6.65;;
51981;SDS011;37998;53.416;6.730;2022-08-25T04:35:24;9.15;;;5.70;;
51981;SDS011;37998;53.416;6.730;2022-08-25T04:37:50;8.50;;;6.18;;
51981;SDS011;37998;53.416;6.730;2022-08-25T04:40:15;9.40;;;6.10;;
51981;SDS011;37998;53.416;6.730;2022-08-25T04:42:41;7.00;;;5.65;;
51981;SDS011;37998;53.416;6.730;2022-08-25T04:45:09;6.93;;;5.32;;
51981;SDS011;37998;53.416;6.730;2022-08-25T04:47:36;10.13;;;5.97;;
51981;SDS011;37998;53.416;6.730;2022-08-25T04:50:03;8.57;;;6.32;;
51981;SDS011;37998;53.416;6.730;2022-08-25T04:52:29;10.40;;;6.50;;
51981;SDS011;37998;53.416;6.730;2022-08-25T04:54:55;9.85;;;6.40;;
51981;SDS011;37998;53.416;6.730;2022-08-25T04:57:20;9.15;;;6.20;;
51981;SDS011;37998;53.416;6.730;2022-08-25T04:59:46;10.48;;;6.78;;
51981;SDS011;37998;53.416;6.730;2022-08-25T05:02:11;8.30;;;6.15;;
51981;SDS011;37998;53.416;6.730;2022-08-25T05:04:37;13.13;;;6.60;;
51981;SDS011;37998;53.416;6.730;2022-08-25T05:07:03;7.22;;;6.43;;
51981;SDS011;37998;53.416;6.730;2022-08-25T05:09:29;8.40;;;6.43;;
51981;SDS011;37998;53.416;6.730;2022-08-25T05:11:55;11.02;;;6.35;;
51981;SDS011;37998;53.416;6.730;2022-08-25T05:14:21;10.88;;;6.88;;
51981;SDS011;37998;53.416;6.730;2022-08-25T05:16:47;11.00;;;6.60;;
51981;SDS011;37998;53.416;6.730;2022-08-25T05:19:13;10.32;;;5.63;;
51981;SDS011;37998;53.416;6.730;2022-08-25T05:21:39;8.52;;;6.30;;
51981;SDS011;37998;53.416;6.730;2022-08-25T05:24:05;10.38;;;6.70;;
51981;SDS011;37998;53.416;6.730;2022-08-25T05:26:32;7.20;;;6.28;;
51981;SDS011;37998;53.416;6.730;2022-08-25T05:28:59;9.68;;;6.03;;
51981;SDS011;37998;53.416;6.730;2022-08-25T05:31:27;8.15;;;6.35;;
51981;SDS011;37998;53.416;6.730;2022-08-25T05:33:54;10.23;;;6.07;;
51981;SDS011;37998;53.416;6.730;2022-08-25T05:36:20;9.80;;;6.70;;
51981;SDS011;37998;53.416;6.730;2022-08-25T05:38:47;8.38;;;6.47;;
51981;SDS011;37998;53.416;6.730;2022-08-25T05:41:14;8.63;;;6.18;;
51981;SDS011;37998;53.416;6.730;2022-08-25T05:43:43;10.70;;;6.55;;
51981;SDS011;37998;53.416;6.730;2022-08-25T05:46:10;7.78;;;6.03;;
51981;SDS011;37998;53.416;6.730;2022-08-25T05:48:37;11.30;;;6.43;;
51981;SDS011;37998;53.416;6.730;2022-08-25T05:51:04;8.90;;;6.20;;
51981;SDS011;37998;53.416;6.730;2022-08-25T05:53:32;10.85;;;6.65;;
51981;SDS011;37998;53.416;6.730;2022-08-25T05:55:58;9.52;;;6.10;;
51981;SDS011;37998;53.416;6.730;2022-08-25T05:58:26;9.23;;;6.50;;
51981;SDS011;37998;53.416;6.730;2022-08-25T06:00:53;9.77;;;7.15;;
51981;SDS011;37998;53.416;6.730;2022-08-25T06:03:19;8.88;;;6.70;;
51981;SDS011;37998;53.416;6.730;2022-08-25T06:05:45;10.82;;;6.35;;
51981;SDS011;37998;53.416;6.730;2022-08-25T06:08:11;10.57;;;6.43;;
51981;SDS011;37998;53.416;6.730;2022-08-25T06:10:37;10.43;;;6.43;;
51981;SDS011;37998;53.416;6.730;2022-08-25T06:13:03;11.95;;;6.72;;
51981;SDS011;37998;53.416;6.730;2022-08-25T06:15:29;10.30;;;6.53;;
51981;SDS011;37998;53.416;6.730;2022-08-25T06:17:55;11.55;;;6.68;;
51981;SDS011;37998;53.416;6.730;2022-08-25T06:20:24;10.57;;;6.82;;
51981;SDS011;37998;53.416;6.730;2022-08-25T06:22:51;10.00;;;6.90;;
51981;SDS011;37998;53.416;6.730;2022-08-25T06:25:18;8.48;;;7.15;;
51981;SDS011;37998;53.416;6.730;2022-08-25T06:27:45;10.85;;;6.78;;
51981;SDS011;37998;53.416;6.730;2022-08-25T06:30:13;10.02;;;6.90;;
51981;SDS011;37998;53.416;6.730;2022-08-25T06:32:40;14.13;;;7.82;;
51981;SDS011;37998;53.416;6.730;2022-08-25T06:35:08;10.63;;;7.03;;
51981;SDS011;37998;53.416;6.730;2022-08-25T06:37:35;9.70;;;6.72;;
51981;SDS011;37998;53.416;6.730;2022-08-25T06:40:02;8.23;;;6.68;;
51981;SDS011;37998;53.416;6.730;2022-08-25T06:42:29;11.40;;;6.97;;
51981;SDS011;37998;53.416;6.730;2022-08-25T06:44:55;10.85;;;6.65;;
51981;SDS011;37998;53.416;6.730;2022-08-25T06:47:20;9.50;;;7.07;;
51981;SDS011;37998;53.416;6.730;2022-08-25T06:49:46;8.20;;;6.45;;
51981;SDS011;37998;53.416;6.730;2022-08-25T06:52:12;8.57;;;6.20;;
51981;SDS011;37998;53.416;6.730;2022-08-25T06:54:38;8.50;;;6.72;;
51981;SDS011;37998;53.416;6.730;2022-08-25T06:57:04;9.93;;;6.75;;
51981;SDS011;37998;53.416;6.730;2022-08-25T06:59:31;7.45;;;6.38;;
51981;SDS011;37998;53.416;6.730;2022-08-25T07:02:00;13.00;;;7.10;;
51981;SDS011;37998;53.416;6.730;2022-08-25T07:04:26;9.63;;;6.55;;
51981;SDS011;37998;53.416;6.730;2022-08-25T07:06:52;15.27;;;7.72;;
51981;SDS011;37998;53.416;6.730;2022-08-25T07:09:17;9.85;;;7.10;;
51981;SDS011;37998;53.416;6.730;2022-08-25T07:11:43;12.85;;;7.32;;
51981;SDS011;37998;53.416;6.730;2022-08-25T07:14:10;12.30;;;7.00;;
51981;SDS011;37998;53.416;6.730;2022-08-25T07:16:38;12.38;;;7.25;;
51981;SDS011;37998;53.416;6.730;2022-08-25T07:19:05;9.82;;;7.60;;
51981;SDS011;37998;53.416;6.730;2022-08-25T07:21:32;12.82;;;7.40;;
51981;SDS011;37998;53.416;6.730;2022-08-25T07:23:59;9.85;;;7.40;;
51981;SDS011;37998;53.416;6.730;2022-08-25T07:26:29;9.02;;;7.22;;
51981;SDS011;37998;53.416;6.730;2022-08-25T07:28:56;10.25;;;6.70;;
51981;SDS011;37998;53.416;6.730;2022-08-25T07:31:23;10.25;;;6.75;;
51981;SDS011;37998;53.416;6.730;2022-08-25T07:33:49;9.10;;;6.85;;
51981;SDS011;37998;53.416;6.730;2022-08-25T07:36:33;11.82;;;7.30;;
51981;SDS011;37998;53.416;6.730;2022-08-25T07:38:59;12.00;;;7.07;;
51981;SDS011;37998;53.416;6.730;2022-08-25T07:41:30;10.70;;;7.10;;
51981;SDS011;37998;53.416;6.730;2022-08-25T07:43:58;11.27;;;7.32;;
51981;SDS011;37998;53.416;6.730;2022-08-25T07:46:23;11.27;;;7.05;;
51981;SDS011;37998;53.416;6.730;2022-08-25T07:48:49;9.55;;;6.35;;
51981;SDS011;37998;53.416;6.730;2022-08-25T07:51:14;12.10;;;7.22;;
51981;SDS011;37998;53.416;6.730;2022-08-25T07:53:41;7.75;;;5.97;;
51981;SDS011;37998;53.416;6.730;2022-08-25T07:56:11;11.15;;;7.25;;
51981;SDS011;37998;53.416;6.730;2022-08-25T07:58:38;9.68;;;6.22;;
51981;SDS011;37998;53.416;6.730;2022-08-25T08:01:05;10.60;;;6.85;;
51981;SDS011;37998;53.416;6.730;2022-08-25T08:03:32;13.95;;;7.22;;
51981;SDS011;37998;53.416;6.730;2022-08-25T08:05:59;14.25;;;6.72;;
51981;SDS011;37998;53.416;6.730;2022-08-25T08:08:25;11.38;;;6.72;;
51981;SDS011;37998;53.416;6.730;2022-08-25T08:10:51;14.70;;;6.95;;
51981;SDS011;37998;53.416;6.730;2022-08-25T08:13:17;8.77;;;6.82;;
51981;SDS011;37998;53.416;6.730;2022-08-25T08:15:43;16.40;;;6.93;;
51981;SDS011;37998;53.416;6.730;2022-08-25T08:18:10;9.88;;;7.03;;
51981;SDS011;37998;53.416;6.730;2022-08-25T08:20:35;12.02;;;7.30;;
51981;SDS011;37998;53.416;6.730;2022-08-25T08:23:01;17.52;;;7.20;;
51981;SDS011;37998;53.416;6.730;2022-08-25T08:25:27;11.88;;;7.50;;
51981;SDS011;37998;53.416;6.730;2022-08-25T08:27:54;9.00;;;6.43;;
51981;SDS011;37998;53.416;6.730;2022-08-25T08:30:21;14.45;;;7.55;;
51981;SDS011;37998;53.416;6.730;2022-08-25T08:32:47;9.20;;;5.90;;
51981;SDS011;37998;53.416;6.730;2022-08-25T08:35:14;9.52;;;7.40;;
51981;SDS011;37998;53.416;6.730;2022-08-25T08:37:43;9.48;;;7.18;;
51981;SDS011;37998;53.416;6.730;2022-08-25T08:40:13;10.63;;;6.93;;
51981;SDS011;37998;53.416;6.730;2022-08-25T08:42:55;12.70;;;7.85;;
51981;SDS011;37998;53.416;6.730;2022-08-25T08:45:52;13.10;;;6.47;;
51981;SDS011;37998;53.416;6.730;2022-08-25T08:51:06;13.02;;;6.75;;
51981;SDS011;37998;53.416;6.730;2022-08-25T08:56:35;16.77;;;7.20;;
51981;SDS011;37998;53.416;6.730;2022-08-25T08:59:06;10.85;;;7.95;;
51981;SDS011;37998;53.416;6.730;2022-08-25T09:01:45;12.50;;;7.38;;
51981;SDS011;37998;53.416;6.730;2022-08-25T09:07:13;12.23;;;7.35;;
51981;SDS011;37998;53.416;6.730;2022-08-25T09:09:47;12.40;;;7.35;;
51981;SDS011;37998;53.416;6.730;2022-08-25T09:12:32;11.43;;;7.00;;
51981;SDS011;37998;53.416;6.730;2022-08-25T09:28:07;10.30;;;7.38;;
51981;SDS011;37998;53.416;6.730;2022-08-25T09:33:37;10.85;;;7.45;;
51981;SDS011;37998;53.416;6.730;2022-08-25T09:36:03;11.23;;;7.07;;
51981;SDS011;37998;53.416;6.730;2022-08-25T09:38:29;9.55;;;6.75;;
51981;SDS011;37998;53.416;6.730;2022-08-25T09:40:56;12.85;;;5.93;;
51981;SDS011;37998;53.416;6.730;2022-08-25T09:46:12;7.78;;;6.47;;
51981;SDS011;37998;53.416;6.730;2022-08-25T09:48:50;9.73;;;6.13;;
51981;SDS011;37998;53.416;6.730;2022-08-25T09:51:20;7.43;;;6.63;;
51981;SDS011;37998;53.416;6.730;2022-08-25T09:53:55;12.30;;;6.50;;
51981;SDS011;37998;53.416;6.730;2022-08-25T09:56:30;8.60;;;6.22;;
51981;SDS011;37998;53.416;6.730;2022-08-25T10:01:58;12.68;;;6.13;;
51981;SDS011;37998;53.416;6.730;2022-08-25T10:04:26;10.95;;;5.55;;
51981;SDS011;37998;53.416;6.730;2022-08-25T10:06:56;6.55;;;4.82;;
51981;SDS011;37998;53.416;6.730;2022-08-25T10:09:31;9.80;;;4.90;;
51981;SDS011;37998;53.416;6.730;2022-08-25T10:12:13;8.13;;;5.20;;
51981;SDS011;37998;53.416;6.730;2022-08-25T10:14:53;12.73;;;5.40;;
51981;SDS011;37998;53.416;6.730;2022-08-25T10:19:50;8.25;;;5.03;;
51981;SDS011;37998;53.416;6.730;2022-08-25T10:22:22;9.38;;;4.40;;
51981;SDS011;37998;53.416;6.730;2022-08-25T10:24:56;9.73;;;4.63;;
51981;SDS011;37998;53.416;6.730;2022-08-25T10:38:41;9.88;;;4.43;;
51981;SDS011;37998;53.416;6.730;2022-08-25T10:49:17;10.15;;;4.53;;
51981;SDS011;37998;53.416;6.730;2022-08-25T10:51:48;7.55;;;4.35;;
51981;SDS011;37998;53.416;6.730;2022-08-25T11:02:23;8.95;;;4.55;;
51981;SDS011;37998;53.416;6.730;2022-08-25T11:10:43;9.70;;;3.80;;
51981;SDS011;37998;53.416;6.730;2022-08-25T11:13:20;9.55;;;4.00;;
51981;SDS011;37998;53.416;6.730;2022-08-25T11:15:54;8.65;;;4.00;;
51981;SDS011;37998;53.416;6.730;2022-08-25T11:18:25;5.35;;;3.47;;
51981;SDS011;37998;53.416;6.730;2022-08-25T11:21:01;8.32;;;3.40;;
51981;SDS011;37998;53.416;6.730;2022-08-25T11:23:38;8.50;;;3.80;;
51981;SDS011;37998;53.416;6.730;2022-08-25T11:26:12;5.47;;;3.47;;
51981;SDS011;37998;53.416;6.730;2022-08-25T11:31:09;8.13;;;4.00;;
51981;SDS011;37998;53.416;6.730;2022-08-25T11:33:35;5.85;;;4.07;;
51981;SDS011;37998;53.416;6.730;2022-08-25T11:36:15;6.63;;;3.92;;
51981;SDS011;37998;53.416;6.730;2022-08-25T11:47:42;6.15;;;4.20;;
51981;SDS011;37998;53.416;6.730;2022-08-25T11:50:30;5.78;;;4.00;;
51981;SDS011;37998;53.416;6.730;2022-08-25T11:55:50;8.05;;;4.00;;
51981;SDS011;37998;53.416;6.730;2022-08-25T12:00:52;6.60;;;3.80;;
51981;SDS011;37998;53.416;6.730;2022-08-25T12:08:46;7.15;;;3.85;;
51981;SDS011;37998;53.416;6.730;2022-08-25T12:14:17;5.82;;;4.22;;
51981;SDS011;37998;53.416;6.730;2022-08-25T12:17:06;7.68;;;3.92;;
51981;SDS011;37998;53.416;6.730;2022-08-25T12:27:07;7.30;;;3.53;;
51981;SDS011;37998;53.416;6.730;2022-08-25T12:35:25;8.18;;;3.88;;
51981;SDS011;37998;53.416;6.730;2022-08-25T12:41:03;5.30;;;3.78;;
51981;SDS011;37998;53.416;6.730;2022-08-25T12:43:41;5.07;;;3.78;;
51981;SDS011;37998;53.416;6.730;2022-08-25T12:56:44;5.70;;;3.88;;
51981;SDS011;37998;53.416;6.730;2022-08-25T12:59:37;8.18;;;3.65;;
51981;SDS011;37998;53.416;6.730;2022-08-25T13:10:42;9.48;;;4.00;;
51981;SDS011;37998;53.416;6.730;2022-08-25T13:13:55;5.25;;;4.22;;
51981;SDS011;37998;53.416;6.730;2022-08-25T13:16:20;7.18;;;3.80;;
51981;SDS011;37998;53.416;6.730;2022-08-25T13:18:47;6.82;;;4.25;;
51981;SDS011;37998;53.416;6.730;2022-08-25T13:21:21;6.60;;;3.88;;
51981;SDS011;37998;53.416;6.730;2022-08-25T13:23:53;8.25;;;3.92;;
51981;SDS011;37998;53.416;6.730;2022-08-25T13:26:30;7.93;;;4.25;;
51981;SDS011;37998;53.416;6.730;2022-08-25T13:29:14;7.38;;;4.53;;
51981;SDS011;37998;53.416;6.730;2022-08-25T13:34:31;11.88;;;3.97;;
51981;SDS011;37998;53.416;6.730;2022-08-25T13:37:09;5.00;;;4.07;;
51981;SDS011;37998;53.416;6.730;2022-08-25T13:40:06;6.93;;;4.28;;
51981;SDS011;37998;53.416;6.730;2022-08-25T13:42:33;8.80;;;4.13;;
51981;SDS011;37998;53.416;6.730;2022-08-25T13:45:00;8.00;;;4.03;;
51981;SDS011;37998;53.416;6.730;2022-08-25T13:47:33;7.65;;;4.30;;
51981;SDS011;37998;53.416;6.730;2022-08-25T13:50:21;6.28;;;3.92;;
51981;SDS011;37998;53.416;6.730;2022-08-25T13:55:22;11.27;;;4.35;;
51981;SDS011;37998;53.416;6.730;2022-08-25T13:58:10;8.60;;;4.10;;
51981;SDS011;37998;53.416;6.730;2022-08-25T14:03:46;7.70;;;3.63;;
51981;SDS011;37998;53.416;6.730;2022-08-25T14:08:42;5.70;;;3.75;;
51981;SDS011;37998;53.416;6.730;2022-08-25T14:11:13;7.40;;;3.57;;
51981;SDS011;37998;53.416;6.730;2022-08-25T14:13:59;6.22;;;3.83;;
51981;SDS011;37998;53.416;6.730;2022-08-25T14:16:33;5.07;;;3.95;;
51981;SDS011;37998;53.416;6.730;2022-08-25T14:19:02;4.90;;;3.78;;
51981;SDS011;37998;53.416;6.730;2022-08-25T14:21:29;5.60;;;4.05;;
51981;SDS011;37998;53.416;6.730;2022-08-25T14:23:56;10.70;;;4.50;;
51981;SDS011;37998;53.416;6.730;2022-08-25T14:26:23;8.85;;;4.03;;
51981;SDS011;37998;53.416;6.730;2022-08-25T14:28:48;4.35;;;3.70;;
51981;SDS011;37998;53.416;6.730;2022-08-25T14:31:24;7.95;;;3.42;;
51981;SDS011;37998;53.416;6.730;2022-08-25T14:34:00;5.68;;;3.75;;
51981;SDS011;37998;53.416;6.730;2022-08-25T14:36:29;7.40;;;3.90;;
51981;SDS011;37998;53.416;6.730;2022-08-25T14:38:57;6.72;;;4.05;;
51981;SDS011;37998;53.416;6.730;2022-08-25T14:41:24;7.88;;;3.80;;
51981;SDS011;37998;53.416;6.730;2022-08-25T14:43:50;8.60;;;3.85;;
51981;SDS011;37998;53.416;6.730;2022-08-25T14:46:20;10.23;;;4.50;;
51981;SDS011;37998;53.416;6.730;2022-08-25T14:48:48;7.88;;;3.80;;
51981;SDS011;37998;53.416;6.730;2022-08-25T14:51:18;6.22;;;3.67;;
51981;SDS011;37998;53.416;6.730;2022-08-25T14:53:44;4.57;;;3.70;;
51981;SDS011;37998;53.416;6.730;2022-08-25T14:56:10;9.35;;;4.30;;
51981;SDS011;37998;53.416;6.730;2022-08-25T14:58:36;6.05;;;3.90;;
51981;SDS011;37998;53.416;6.730;2022-08-25T15:01:03;7.72;;;3.95;;
51981;SDS011;37998;53.416;6.730;2022-08-25T15:03:31;5.20;;;3.83;;
51981;SDS011;37998;53.416;6.730;2022-08-25T15:06:01;9.33;;;4.53;;
51981;SDS011;37998;53.416;6.730;2022-08-25T15:08:28;5.10;;;3.75;;
51981;SDS011;37998;53.416;6.730;2022-08-25T15:11:12;7.13;;;4.15;;
51981;SDS011;37998;53.416;6.730;2022-08-25T15:13:39;7.35;;;3.85;;
51981;SDS011;37998;53.416;6.730;2022-08-25T15:16:05;7.18;;;3.92;;
51981;SDS011;37998;53.416;6.730;2022-08-25T15:18:32;6.20;;;3.78;;
51981;SDS011;37998;53.416;6.730;2022-08-25T15:20:59;5.68;;;4.40;;
51981;SDS011;37998;53.416;6.730;2022-08-25T15:23:24;7.50;;;3.63;;
51981;SDS011;37998;53.416;6.730;2022-08-25T15:25:50;6.65;;;3.85;;
51981;SDS011;37998;53.416;6.730;2022-08-25T15:28:19;6.82;;;3.58;;
51981;SDS011;37998;53.416;6.730;2022-08-25T15:30:45;8.38;;;3.78;;
51981;SDS011;37998;53.416;6.730;2022-08-25T15:33:11;5.22;;;3.70;;
51981;SDS011;37998;53.416;6.730;2022-08-25T15:35:38;8.60;;;4.00;;
51981;SDS011;37998;53.416;6.730;2022-08-25T15:38:04;6.93;;;4.03;;
51981;SDS011;37998;53.416;6.730;2022-08-25T15:40:29;5.50;;;3.78;;
51981;SDS011;37998;53.416;6.730;2022-08-25T15:42:55;7.65;;;4.65;;
51981;SDS011;37998;53.416;6.730;2022-08-25T15:45:22;6.35;;;3.78;;
51981;SDS011;37998;53.416;6.730;2022-08-25T15:47:47;5.75;;;4.38;;
51981;SDS011;37998;53.416;6.730;2022-08-25T15:50:15;9.05;;;3.83;;
51981;SDS011;37998;53.416;6.730;2022-08-25T15:52:43;6.32;;;3.90;;
51981;SDS011;37998;53.416;6.730;2022-08-25T15:55:09;6.30;;;3.90;;
51981;SDS011;37998;53.416;6.730;2022-08-25T15:57:35;4.25;;;3.85;;
51981;SDS011;37998;53.416;6.730;2022-08-25T16:00:01;6.43;;;3.58;;
51981;SDS011;37998;53.416;6.730;2022-08-25T16:02:29;9.57;;;4.07;;
51981;SDS011;37998;53.416;6.730;2022-08-25T16:04:57;9.77;;;4.30;;
51981;SDS011;37998;53.416;6.730;2022-08-25T16:07:22;7.35;;;4.72;;
51981;SDS011;37998;53.416;6.730;2022-08-25T16:09:48;6.03;;;4.05;;
51981;SDS011;37998;53.416;6.730;2022-08-25T16:12:14;5.43;;;4.00;;
51981;SDS011;37998;53.416;6.730;2022-08-25T16:14:40;9.30;;;3.90;;
51981;SDS011;37998;53.416;6.730;2022-08-25T16:17:06;7.38;;;4.18;;
51981;SDS011;37998;53.416;6.730;2022-08-25T16:19:32;5.90;;;4.20;;
51981;SDS011;37998;53.416;6.730;2022-08-25T16:21:57;6.03;;;3.92;;
51981;SDS011;37998;53.416;6.730;2022-08-25T16:24:24;10.38;;;3.88;;
51981;SDS011;37998;53.416;6.730;2022-08-25T16:26:50;4.40;;;3.95;;
51981;SDS011;37998;53.416;6.730;2022-08-25T16:29:16;7.93;;;3.85;;
51981;SDS011;37998;53.416;6.730;2022-08-25T16:31:43;6.72;;;4.75;;
51981;SDS011;37998;53.416;6.730;2022-08-25T16:34:09;7.43;;;4.00;;
51981;SDS011;37998;53.416;6.730;2022-08-25T16:36:35;8.45;;;4.05;;
51981;SDS011;37998;53.416;6.730;2022-08-25T16:39:02;5.70;;;4.18;;
51981;SDS011;37998;53.416;6.730;2022-08-25T16:41:29;7.72;;;4.25;;
51981;SDS011;37998;53.416;6.730;2022-08-25T16:43:59;7.28;;;3.95;;
51981;SDS011;37998;53.416;6.730;2022-08-25T16:46:31;7.45;;;4.25;;
51981;SDS011;37998;53.416;6.730;2022-08-25T16:49:01;12.20;;;5.35;;
51981;SDS011;37998;53.416;6.730;2022-08-25T16:51:28;9.27;;;4.32;;
51981;SDS011;37998;53.416;6.730;2022-08-25T16:53:54;6.63;;;4.30;;
51981;SDS011;37998;53.416;6.730;2022-08-25T16:56:39;7.25;;;4.28;;
51981;SDS011;37998;53.416;6.730;2022-08-25T16:59:06;6.47;;;4.40;;
51981;SDS011;37998;53.416;6.730;2022-08-25T17:01:34;6.13;;;4.05;;
51981;SDS011;37998;53.416;6.730;2022-08-25T17:04:01;5.07;;;4.28;;
51981;SDS011;37998;53.416;6.730;2022-08-25T17:06:28;5.00;;;4.10;;
51981;SDS011;37998;53.416;6.730;2022-08-25T17:08:57;5.45;;;4.50;;
51981;SDS011;37998;53.416;6.730;2022-08-25T17:11:24;8.43;;;4.43;;
51981;SDS011;37998;53.416;6.730;2022-08-25T17:13:53;8.60;;;4.50;;
51981;SDS011;37998;53.416;6.730;2022-08-25T17:16:22;6.60;;;4.65;;